sensor_id;sensor_type;location;lat;lon;timestamp;P1;durP1;ratioP1;P2;durP2;ratioP2
58528;SDS011;44322;52.968;5.816;2024-03-29T00:00:52;5.60;;;1.23;;
58528;SDS011;44322;52.968;5.816;2024-03-29T00:03:18;4.15;;;1.00;;
58528;SDS011;44322;52.968;5.816;2024-03-29T00:05:44;4.93;;;1.10;;
58528;SDS011;44322;52.968;5.816;2024-03-29T00:08:09;3.25;;;1.17;;
58528;SDS011;44322;52.968;5.816;2024-03-29T00:10:35;5.15;;;1.50;;
58528;SDS011;44322;52.968;5.816;2024-03-29T00:13:01;4.78;;;1.30;;
58528;SDS011;44322;52.968;5.816;2024-03-29T00:15:26;4.10;;;1.15;;
58528;SDS011;44322;52.968;5.816;2024-03-29T00:17:52;5.35;;;1.48;;
58528;SDS011;44322;52.968;5.816;2024-03-29T00:20:17;5.85;;;1.50;;
58528;SDS011;44322;52.968;5.816;2024-03-29T00:22:45;6.22;;;1.67;;
58528;SDS011;44322;52.968;5.816;2024-03-29T00:25:10;4.43;;;1.23;;
58528;SDS011;44322;52.968;5.816;2024-03-29T00:27:36;4.55;;;1.77;;
58528;SDS011;44322;52.968;5.816;2024-03-29T00:30:02;5.43;;;1.52;;
58528;SDS011;44322;52.968;5.816;2024-03-29T00:32:27;4.93;;;1.48;;
58528;SDS011;44322;52.968;5.816;2024-03-29T00:34:53;6.05;;;1.63;;
58528;SDS011;44322;52.968;5.816;2024-03-29T00:37:19;3.72;;;1.40;;
58528;SDS011;44322;52.968;5.816;2024-03-29T00:39:45;4.25;;;1.40;;
58528;SDS011;44322;52.968;5.816;2024-03-29T00:42:11;4.88;;;1.65;;
58528;SDS011;44322;52.968;5.816;2024-03-29T00:44:43;5.15;;;1.30;;
58528;SDS011;44322;52.968;5.816;2024-03-29T00:47:09;5.18;;;1.77;;
58528;SDS011;44322;52.968;5.816;2024-03-29T00:49:35;4.28;;;1.40;;
58528;SDS011;44322;52.968;5.816;2024-03-29T00:52:01;4.65;;;1.15;;
58528;SDS011;44322;52.968;5.816;2024-03-29T00:54:27;6.00;;;1.40;;
58528;SDS011;44322;52.968;5.816;2024-03-29T00:56:52;6.35;;;1.55;;
58528;SDS011;44322;52.968;5.816;2024-03-29T00:59:18;4.88;;;1.48;;
58528;SDS011;44322;52.968;5.816;2024-03-29T01:01:44;5.82;;;1.38;;
58528;SDS011;44322;52.968;5.816;2024-03-29T01:04:10;3.25;;;1.40;;
58528;SDS011;44322;52.968;5.816;2024-03-29T01:06:36;3.75;;;1.30;;
58528;SDS011;44322;52.968;5.816;2024-03-29T01:09:02;6.35;;;1.38;;
58528;SDS011;44322;52.968;5.816;2024-03-29T01:11:29;4.25;;;1.45;;
58528;SDS011;44322;52.968;5.816;2024-03-29T01:13:55;5.10;;;1.23;;
58528;SDS011;44322;52.968;5.816;2024-03-29T01:16:20;6.97;;;1.70;;
58528;SDS011;44322;52.968;5.816;2024-03-29T01:18:46;4.15;;;1.10;;
58528;SDS011;44322;52.968;5.816;2024-03-29T01:21:15;4.82;;;1.50;;
58528;SDS011;44322;52.968;5.816;2024-03-29T01:23:43;9.18;;;1.45;;
58528;SDS011;44322;52.968;5.816;2024-03-29T01:26:09;4.25;;;1.52;;
58528;SDS011;44322;52.968;5.816;2024-03-29T01:31:03;4.05;;;1.38;;
58528;SDS011;44322;52.968;5.816;2024-03-29T01:33:29;3.20;;;1.13;;
58528;SDS011;44322;52.968;5.816;2024-03-29T01:35:57;6.40;;;1.58;;
58528;SDS011;44322;52.968;5.816;2024-03-29T01:38:23;5.70;;;1.42;;
58528;SDS011;44322;52.968;5.816;2024-03-29T01:40:49;3.70;;;1.30;;
58528;SDS011;44322;52.968;5.816;2024-03-29T01:43:14;8.13;;;1.48;;
58528;SDS011;44322;52.968;5.816;2024-03-29T01:45:40;3.30;;;1.02;;
58528;SDS011;44322;52.968;5.816;2024-03-29T01:48:07;6.28;;;1.30;;
58528;SDS011;44322;52.968;5.816;2024-03-29T01:50:36;5.97;;;1.40;;
58528;SDS011;44322;52.968;5.816;2024-03-29T01:53:03;5.60;;;1.25;;
58528;SDS011;44322;52.968;5.816;2024-03-29T01:55:30;5.63;;;1.23;;
58528;SDS011;44322;52.968;5.816;2024-03-29T01:57:56;5.10;;;1.63;;
58528;SDS011;44322;52.968;5.816;2024-03-29T02:00:22;5.22;;;1.48;;
58528;SDS011;44322;52.968;5.816;2024-03-29T02:02:48;3.83;;;1.30;;
58528;SDS011;44322;52.968;5.816;2024-03-29T02:05:13;4.82;;;1.67;;
58528;SDS011;44322;52.968;5.816;2024-03-29T02:07:39;4.28;;;1.58;;
58528;SDS011;44322;52.968;5.816;2024-03-29T02:10:05;4.25;;;1.20;;
58528;SDS011;44322;52.968;5.816;2024-03-29T02:12:33;5.57;;;1.40;;
58528;SDS011;44322;52.968;5.816;2024-03-29T02:14:59;4.78;;;1.38;;
58528;SDS011;44322;52.968;5.816;2024-03-29T02:19:52;4.15;;;1.30;;
58528;SDS011;44322;52.968;5.816;2024-03-29T02:22:18;5.45;;;1.65;;
58528;SDS011;44322;52.968;5.816;2024-03-29T02:24:45;5.60;;;1.35;;
58528;SDS011;44322;52.968;5.816;2024-03-29T02:27:12;6.82;;;1.42;;
58528;SDS011;44322;52.968;5.816;2024-03-29T02:29:37;6.65;;;1.30;;
58528;SDS011;44322;52.968;5.816;2024-03-29T02:32:03;5.70;;;1.48;;
58528;SDS011;44322;52.968;5.816;2024-03-29T02:34:29;5.15;;;1.63;;
58528;SDS011;44322;52.968;5.816;2024-03-29T02:36:55;7.47;;;2.03;;
58528;SDS011;44322;52.968;5.816;2024-03-29T02:39:22;5.20;;;1.42;;
58528;SDS011;44322;52.968;5.816;2024-03-29T02:41:47;7.03;;;1.63;;
58528;SDS011;44322;52.968;5.816;2024-03-29T02:44:13;7.85;;;1.50;;
58528;SDS011;44322;52.968;5.816;2024-03-29T02:46:41;4.18;;;1.20;;
58528;SDS011;44322;52.968;5.816;2024-03-29T02:49:07;4.72;;;1.10;;
58528;SDS011;44322;52.968;5.816;2024-03-29T02:51:33;3.58;;;1.27;;
58528;SDS011;44322;52.968;5.816;2024-03-29T02:53:58;3.47;;;1.10;;
58528;SDS011;44322;52.968;5.816;2024-03-29T02:56:24;5.70;;;1.35;;
58528;SDS011;44322;52.968;5.816;2024-03-29T02:58:49;5.57;;;1.45;;
58528;SDS011;44322;52.968;5.816;2024-03-29T03:01:15;5.53;;;1.45;;
58528;SDS011;44322;52.968;5.816;2024-03-29T03:03:41;5.45;;;1.30;;
58528;SDS011;44322;52.968;5.816;2024-03-29T03:06:06;6.90;;;1.63;;
58528;SDS011;44322;52.968;5.816;2024-03-29T03:08:32;5.05;;;1.25;;
58528;SDS011;44322;52.968;5.816;2024-03-29T03:11:16;4.35;;;1.48;;
58528;SDS011;44322;52.968;5.816;2024-03-29T03:13:41;4.63;;;1.52;;
58528;SDS011;44322;52.968;5.816;2024-03-29T03:16:07;2.58;;;1.17;;
58528;SDS011;44322;52.968;5.816;2024-03-29T03:18:32;5.47;;;1.30;;
58528;SDS011;44322;52.968;5.816;2024-03-29T03:20:58;4.15;;;1.20;;
58528;SDS011;44322;52.968;5.816;2024-03-29T03:23:24;6.45;;;1.13;;
58528;SDS011;44322;52.968;5.816;2024-03-29T03:25:53;6.25;;;1.45;;
58528;SDS011;44322;52.968;5.816;2024-03-29T03:28:20;9.10;;;1.60;;
58528;SDS011;44322;52.968;5.816;2024-03-29T03:30:45;4.40;;;1.10;;
58528;SDS011;44322;52.968;5.816;2024-03-29T03:33:11;4.80;;;1.10;;
58528;SDS011;44322;52.968;5.816;2024-03-29T03:35:37;4.03;;;1.23;;
58528;SDS011;44322;52.968;5.816;2024-03-29T03:38:02;5.93;;;1.27;;
58528;SDS011;44322;52.968;5.816;2024-03-29T03:40:28;5.53;;;1.40;;
58528;SDS011;44322;52.968;5.816;2024-03-29T03:42:53;4.22;;;1.25;;
58528;SDS011;44322;52.968;5.816;2024-03-29T03:45:19;4.60;;;1.38;;
58528;SDS011;44322;52.968;5.816;2024-03-29T03:47:45;4.75;;;1.30;;
58528;SDS011;44322;52.968;5.816;2024-03-29T03:50:11;6.53;;;1.77;;
58528;SDS011;44322;52.968;5.816;2024-03-29T03:52:36;4.53;;;1.40;;
58528;SDS011;44322;52.968;5.816;2024-03-29T03:55:02;4.25;;;1.38;;
58528;SDS011;44322;52.968;5.816;2024-03-29T03:57:27;5.88;;;1.48;;
58528;SDS011;44322;52.968;5.816;2024-03-29T03:59:53;5.13;;;1.20;;
58528;SDS011;44322;52.968;5.816;2024-03-29T04:02:18;6.20;;;1.50;;
58528;SDS011;44322;52.968;5.816;2024-03-29T04:04:47;6.63;;;1.58;;
58528;SDS011;44322;52.968;5.816;2024-03-29T04:07:13;5.10;;;1.48;;
58528;SDS011;44322;52.968;5.816;2024-03-29T04:09:39;6.22;;;1.30;;
58528;SDS011;44322;52.968;5.816;2024-03-29T04:12:04;5.78;;;1.75;;
58528;SDS011;44322;52.968;5.816;2024-03-29T04:14:30;5.75;;;1.27;;
58528;SDS011;44322;52.968;5.816;2024-03-29T04:16:55;4.43;;;1.38;;
58528;SDS011;44322;52.968;5.816;2024-03-29T04:19:21;4.80;;;1.35;;
58528;SDS011;44322;52.968;5.816;2024-03-29T04:21:47;3.25;;;0.90;;
58528;SDS011;44322;52.968;5.816;2024-03-29T04:24:12;4.20;;;1.25;;
58528;SDS011;44322;52.968;5.816;2024-03-29T04:26:38;3.88;;;1.20;;
58528;SDS011;44322;52.968;5.816;2024-03-29T04:29:04;3.10;;;1.20;;
58528;SDS011;44322;52.968;5.816;2024-03-29T04:31:30;6.55;;;1.40;;
58528;SDS011;44322;52.968;5.816;2024-03-29T04:33:56;7.43;;;1.33;;
58528;SDS011;44322;52.968;5.816;2024-03-29T04:36:21;6.78;;;1.42;;
58528;SDS011;44322;52.968;5.816;2024-03-29T04:38:47;3.85;;;1.10;;
58528;SDS011;44322;52.968;5.816;2024-03-29T04:41:13;7.43;;;1.27;;
58528;SDS011;44322;52.968;5.816;2024-03-29T04:43:39;3.03;;;1.15;;
58528;SDS011;44322;52.968;5.816;2024-03-29T04:46:09;5.18;;;1.15;;
58528;SDS011;44322;52.968;5.816;2024-03-29T04:48:36;4.20;;;1.13;;
58528;SDS011;44322;52.968;5.816;2024-03-29T04:51:06;4.55;;;1.05;;
58528;SDS011;44322;52.968;5.816;2024-03-29T04:53:32;2.97;;;1.20;;
58528;SDS011;44322;52.968;5.816;2024-03-29T04:58:26;4.40;;;1.10;;
58528;SDS011;44322;52.968;5.816;2024-03-29T05:00:51;4.78;;;1.20;;
58528;SDS011;44322;52.968;5.816;2024-03-29T05:03:18;4.57;;;1.42;;
58528;SDS011;44322;52.968;5.816;2024-03-29T05:05:44;3.45;;;1.20;;
58528;SDS011;44322;52.968;5.816;2024-03-29T05:08:11;4.28;;;1.15;;
58528;SDS011;44322;52.968;5.816;2024-03-29T05:10:36;4.30;;;1.15;;
58528;SDS011;44322;52.968;5.816;2024-03-29T05:13:02;3.33;;;1.10;;
58528;SDS011;44322;52.968;5.816;2024-03-29T05:15:28;4.65;;;1.20;;
58528;SDS011;44322;52.968;5.816;2024-03-29T05:17:54;3.88;;;1.08;;
58528;SDS011;44322;52.968;5.816;2024-03-29T05:20:20;4.30;;;1.30;;
58528;SDS011;44322;52.968;5.816;2024-03-29T05:22:45;4.90;;;1.08;;
58528;SDS011;44322;52.968;5.816;2024-03-29T05:25:11;6.25;;;1.73;;
58528;SDS011;44322;52.968;5.816;2024-03-29T05:27:36;4.30;;;1.25;;
58528;SDS011;44322;52.968;5.816;2024-03-29T05:30:02;4.72;;;1.25;;
58528;SDS011;44322;52.968;5.816;2024-03-29T05:32:29;3.67;;;0.98;;
58528;SDS011;44322;52.968;5.816;2024-03-29T05:34:55;3.88;;;1.20;;
58528;SDS011;44322;52.968;5.816;2024-03-29T05:37:21;6.10;;;1.13;;
58528;SDS011;44322;52.968;5.816;2024-03-29T05:39:50;3.17;;;0.70;;
58528;SDS011;44322;52.968;5.816;2024-03-29T05:42:24;3.13;;;1.08;;
58528;SDS011;44322;52.968;5.816;2024-03-29T05:44:54;3.20;;;0.90;;
58528;SDS011;44322;52.968;5.816;2024-03-29T05:47:20;4.22;;;1.30;;
58528;SDS011;44322;52.968;5.816;2024-03-29T05:49:46;2.83;;;0.70;;
58528;SDS011;44322;52.968;5.816;2024-03-29T05:52:15;4.55;;;1.02;;
58528;SDS011;44322;52.968;5.816;2024-03-29T05:54:41;4.55;;;0.82;;
58528;SDS011;44322;52.968;5.816;2024-03-29T05:57:07;1.52;;;0.85;;
58528;SDS011;44322;52.968;5.816;2024-03-29T05:59:33;3.70;;;1.00;;
58528;SDS011;44322;52.968;5.816;2024-03-29T06:01:59;2.78;;;0.95;;
58528;SDS011;44322;52.968;5.816;2024-03-29T06:04:25;3.67;;;1.08;;
58528;SDS011;44322;52.968;5.816;2024-03-29T06:06:58;2.80;;;1.00;;
58528;SDS011;44322;52.968;5.816;2024-03-29T06:09:27;3.10;;;0.95;;
58528;SDS011;44322;52.968;5.816;2024-03-29T06:11:56;1.67;;;0.80;;
58528;SDS011;44322;52.968;5.816;2024-03-29T06:14:23;3.15;;;0.90;;
58528;SDS011;44322;52.968;5.816;2024-03-29T06:17:07;3.88;;;0.90;;
58528;SDS011;44322;52.968;5.816;2024-03-29T06:19:52;1.67;;;0.75;;
58528;SDS011;44322;52.968;5.816;2024-03-29T06:22:21;3.13;;;0.88;;
58528;SDS011;44322;52.968;5.816;2024-03-29T06:24:52;2.97;;;0.80;;
58528;SDS011;44322;52.968;5.816;2024-03-29T06:27:19;2.00;;;0.90;;
58528;SDS011;44322;52.968;5.816;2024-03-29T06:29:47;3.22;;;0.70;;
58528;SDS011;44322;52.968;5.816;2024-03-29T06:32:13;2.40;;;0.80;;
58528;SDS011;44322;52.968;5.816;2024-03-29T06:34:39;2.85;;;0.90;;
58528;SDS011;44322;52.968;5.816;2024-03-29T06:37:04;4.13;;;0.90;;
58528;SDS011;44322;52.968;5.816;2024-03-29T06:39:30;2.83;;;0.90;;
58528;SDS011;44322;52.968;5.816;2024-03-29T06:41:55;2.15;;;0.85;;
58528;SDS011;44322;52.968;5.816;2024-03-29T06:44:21;2.63;;;0.88;;
58528;SDS011;44322;52.968;5.816;2024-03-29T06:46:47;1.70;;;0.60;;
58528;SDS011;44322;52.968;5.816;2024-03-29T06:49:12;2.00;;;0.73;;
58528;SDS011;44322;52.968;5.816;2024-03-29T06:51:38;1.58;;;0.60;;
58528;SDS011;44322;52.968;5.816;2024-03-29T06:54:05;0.88;;;0.50;;
58528;SDS011;44322;52.968;5.816;2024-03-29T06:56:31;0.80;;;0.57;;
58528;SDS011;44322;52.968;5.816;2024-03-29T06:58:57;0.90;;;0.60;;
58528;SDS011;44322;52.968;5.816;2024-03-29T07:01:23;1.50;;;0.82;;
58528;SDS011;44322;52.968;5.816;2024-03-29T07:03:48;1.27;;;0.60;;
58528;SDS011;44322;52.968;5.816;2024-03-29T07:06:14;2.28;;;0.50;;
58528;SDS011;44322;52.968;5.816;2024-03-29T07:08:39;2.10;;;0.45;;
58528;SDS011;44322;52.968;5.816;2024-03-29T07:11:05;1.55;;;0.57;;
58528;SDS011;44322;52.968;5.816;2024-03-29T07:13:31;1.40;;;0.70;;
58528;SDS011;44322;52.968;5.816;2024-03-29T07:15:59;2.78;;;1.05;;
58528;SDS011;44322;52.968;5.816;2024-03-29T07:18:25;2.53;;;0.63;;
58528;SDS011;44322;52.968;5.816;2024-03-29T07:20:51;2.00;;;0.75;;
58528;SDS011;44322;52.968;5.816;2024-03-29T07:23:18;1.63;;;0.57;;
58528;SDS011;44322;52.968;5.816;2024-03-29T07:25:44;3.95;;;1.10;;
58528;SDS011;44322;52.968;5.816;2024-03-29T07:28:11;1.38;;;0.52;;
58528;SDS011;44322;52.968;5.816;2024-03-29T07:30:41;2.80;;;0.75;;
58528;SDS011;44322;52.968;5.816;2024-03-29T07:33:06;1.67;;;0.47;;
58528;SDS011;44322;52.968;5.816;2024-03-29T07:35:34;2.33;;;0.77;;
58528;SDS011;44322;52.968;5.816;2024-03-29T07:37:59;1.35;;;0.63;;
58528;SDS011;44322;52.968;5.816;2024-03-29T07:40:25;2.65;;;0.90;;
58528;SDS011;44322;52.968;5.816;2024-03-29T07:42:51;1.70;;;0.63;;
58528;SDS011;44322;52.968;5.816;2024-03-29T07:45:16;2.95;;;0.88;;
58528;SDS011;44322;52.968;5.816;2024-03-29T07:47:42;2.80;;;0.77;;
58528;SDS011;44322;52.968;5.816;2024-03-29T07:50:07;1.27;;;0.65;;
58528;SDS011;44322;52.968;5.816;2024-03-29T07:52:35;2.40;;;0.50;;
58528;SDS011;44322;52.968;5.816;2024-03-29T07:55:00;1.73;;;0.70;;
58528;SDS011;44322;52.968;5.816;2024-03-29T07:57:26;2.35;;;0.75;;
58528;SDS011;44322;52.968;5.816;2024-03-29T07:59:51;1.40;;;0.60;;
58528;SDS011;44322;52.968;5.816;2024-03-29T08:02:17;3.03;;;0.75;;
58528;SDS011;44322;52.968;5.816;2024-03-29T08:04:43;1.80;;;0.50;;
58528;SDS011;44322;52.968;5.816;2024-03-29T08:07:10;2.28;;;0.68;;
58528;SDS011;44322;52.968;5.816;2024-03-29T08:09:37;1.55;;;0.70;;
58528;SDS011;44322;52.968;5.816;2024-03-29T08:12:04;2.88;;;0.70;;
58528;SDS011;44322;52.968;5.816;2024-03-29T08:14:30;1.58;;;0.70;;
58528;SDS011;44322;52.968;5.816;2024-03-29T08:16:56;1.73;;;0.70;;
58528;SDS011;44322;52.968;5.816;2024-03-29T08:19:27;2.70;;;0.85;;
58528;SDS011;44322;52.968;5.816;2024-03-29T08:21:53;0.75;;;0.50;;
58528;SDS011;44322;52.968;5.816;2024-03-29T08:24:18;1.05;;;0.47;;
58528;SDS011;44322;52.968;5.816;2024-03-29T08:26:44;0.82;;;0.50;;
58528;SDS011;44322;52.968;5.816;2024-03-29T08:29:10;2.25;;;0.60;;
58528;SDS011;44322;52.968;5.816;2024-03-29T08:31:36;2.13;;;0.65;;
58528;SDS011;44322;52.968;5.816;2024-03-29T08:34:01;2.53;;;1.00;;
58528;SDS011;44322;52.968;5.816;2024-03-29T08:36:27;0.95;;;0.70;;
58528;SDS011;44322;52.968;5.816;2024-03-29T08:38:53;1.10;;;0.60;;
58528;SDS011;44322;52.968;5.816;2024-03-29T08:41:18;1.65;;;0.57;;
58528;SDS011;44322;52.968;5.816;2024-03-29T08:43:44;2.17;;;0.47;;
58528;SDS011;44322;52.968;5.816;2024-03-29T08:46:10;1.63;;;0.70;;
58528;SDS011;44322;52.968;5.816;2024-03-29T08:48:36;1.05;;;0.60;;
58528;SDS011;44322;52.968;5.816;2024-03-29T08:51:05;2.85;;;1.15;;
58528;SDS011;44322;52.968;5.816;2024-03-29T08:53:30;2.20;;;0.60;;
58528;SDS011;44322;52.968;5.816;2024-03-29T08:55:56;1.73;;;1.10;;
58528;SDS011;44322;52.968;5.816;2024-03-29T08:58:21;1.35;;;0.75;;
58528;SDS011;44322;52.968;5.816;2024-03-29T09:00:55;1.38;;;0.57;;
58528;SDS011;44322;52.968;5.816;2024-03-29T09:03:22;1.10;;;0.60;;
58528;SDS011;44322;52.968;5.816;2024-03-29T09:05:48;2.22;;;0.60;;
58528;SDS011;44322;52.968;5.816;2024-03-29T09:08:14;0.98;;;0.50;;
58528;SDS011;44322;52.968;5.816;2024-03-29T09:10:40;1.25;;;0.57;;
58528;SDS011;44322;52.968;5.816;2024-03-29T09:13:06;1.63;;;0.50;;
58528;SDS011;44322;52.968;5.816;2024-03-29T09:15:32;1.83;;;0.50;;
58528;SDS011;44322;52.968;5.816;2024-03-29T09:17:58;0.50;;;0.50;;
58528;SDS011;44322;52.968;5.816;2024-03-29T09:20:28;0.57;;;0.47;;
58528;SDS011;44322;52.968;5.816;2024-03-29T09:22:53;2.70;;;0.80;;
58528;SDS011;44322;52.968;5.816;2024-03-29T09:25:19;1.42;;;0.47;;
58528;SDS011;44322;52.968;5.816;2024-03-29T09:27:45;2.20;;;0.63;;
58528;SDS011;44322;52.968;5.816;2024-03-29T09:30:11;1.65;;;0.75;;
58528;SDS011;44322;52.968;5.816;2024-03-29T09:32:37;0.55;;;0.50;;
58528;SDS011;44322;52.968;5.816;2024-03-29T09:35:03;2.47;;;0.73;;
58528;SDS011;44322;52.968;5.816;2024-03-29T09:37:29;4.90;;;0.75;;
58528;SDS011;44322;52.968;5.816;2024-03-29T09:39:55;1.90;;;0.90;;
58528;SDS011;44322;52.968;5.816;2024-03-29T09:42:21;1.75;;;0.77;;
58528;SDS011;44322;52.968;5.816;2024-03-29T09:44:50;1.58;;;0.75;;
58528;SDS011;44322;52.968;5.816;2024-03-29T09:47:17;1.70;;;0.80;;
58528;SDS011;44322;52.968;5.816;2024-03-29T09:49:43;1.77;;;0.75;;
58528;SDS011;44322;52.968;5.816;2024-03-29T09:52:10;2.03;;;0.90;;
58528;SDS011;44322;52.968;5.816;2024-03-29T09:54:36;0.82;;;0.50;;
58528;SDS011;44322;52.968;5.816;2024-03-29T09:57:02;2.30;;;0.40;;
58528;SDS011;44322;52.968;5.816;2024-03-29T09:59:28;0.55;;;0.40;;
58528;SDS011;44322;52.968;5.816;2024-03-29T10:01:54;0.55;;;0.38;;
58528;SDS011;44322;52.968;5.816;2024-03-29T10:04:20;0.60;;;0.50;;
58528;SDS011;44322;52.968;5.816;2024-03-29T10:06:49;0.43;;;0.40;;
58528;SDS011;44322;52.968;5.816;2024-03-29T10:09:18;1.52;;;0.63;;
58528;SDS011;44322;52.968;5.816;2024-03-29T10:11:44;0.95;;;0.70;;
58528;SDS011;44322;52.968;5.816;2024-03-29T10:14:10;0.98;;;0.90;;
58528;SDS011;44322;52.968;5.816;2024-03-29T10:16:36;1.50;;;0.63;;
58528;SDS011;44322;52.968;5.816;2024-03-29T10:19:02;2.85;;;0.70;;
58528;SDS011;44322;52.968;5.816;2024-03-29T10:21:28;0.98;;;0.70;;
58528;SDS011;44322;52.968;5.816;2024-03-29T10:23:54;0.93;;;0.45;;
58528;SDS011;44322;52.968;5.816;2024-03-29T10:26:20;1.02;;;0.60;;
58528;SDS011;44322;52.968;5.816;2024-03-29T10:28:46;0.90;;;0.55;;
58528;SDS011;44322;52.968;5.816;2024-03-29T10:31:12;1.35;;;0.70;;
58528;SDS011;44322;52.968;5.816;2024-03-29T10:33:41;0.95;;;0.70;;
58528;SDS011;44322;52.968;5.816;2024-03-29T10:36:08;1.75;;;0.70;;
58528;SDS011;44322;52.968;5.816;2024-03-29T10:38:37;0.55;;;0.55;;
58528;SDS011;44322;52.968;5.816;2024-03-29T10:41:03;1.42;;;0.70;;
58528;SDS011;44322;52.968;5.816;2024-03-29T10:43:32;1.67;;;0.70;;
58528;SDS011;44322;52.968;5.816;2024-03-29T10:45:59;2.65;;;0.80;;
58528;SDS011;44322;52.968;5.816;2024-03-29T10:48:26;0.83;;;0.70;;
58528;SDS011;44322;52.968;5.816;2024-03-29T10:50:53;1.77;;;0.80;;
58528;SDS011;44322;52.968;5.816;2024-03-29T10:53:20;1.33;;;0.80;;
58528;SDS011;44322;52.968;5.816;2024-03-29T10:55:48;0.50;;;0.50;;
58528;SDS011;44322;52.968;5.816;2024-03-29T10:58:15;1.75;;;0.60;;
58528;SDS011;44322;52.968;5.816;2024-03-29T11:00:47;1.15;;;0.52;;
58528;SDS011;44322;52.968;5.816;2024-03-29T11:03:27;1.00;;;0.80;;
58528;SDS011;44322;52.968;5.816;2024-03-29T11:06:00;1.88;;;0.70;;
58528;SDS011;44322;52.968;5.816;2024-03-29T11:08:28;0.90;;;0.50;;
58528;SDS011;44322;52.968;5.816;2024-03-29T11:10:59;2.85;;;0.98;;
58528;SDS011;44322;52.968;5.816;2024-03-29T11:13:50;1.30;;;0.80;;
58528;SDS011;44322;52.968;5.816;2024-03-29T11:16:28;0.98;;;0.90;;
58528;SDS011;44322;52.968;5.816;2024-03-29T11:18:53;1.42;;;0.70;;
58528;SDS011;44322;52.968;5.816;2024-03-29T11:21:19;0.98;;;0.80;;
58528;SDS011;44322;52.968;5.816;2024-03-29T11:23:49;1.70;;;0.90;;
58528;SDS011;44322;52.968;5.816;2024-03-29T11:26:16;1.25;;;0.70;;
58528;SDS011;44322;52.968;5.816;2024-03-29T11:28:47;2.55;;;0.82;;
58528;SDS011;44322;52.968;5.816;2024-03-29T11:31:14;1.85;;;0.80;;
58528;SDS011;44322;52.968;5.816;2024-03-29T11:36:17;1.02;;;0.68;;
58528;SDS011;44322;52.968;5.816;2024-03-29T11:39:09;1.42;;;0.75;;
58528;SDS011;44322;52.968;5.816;2024-03-29T11:41:48;1.88;;;0.60;;
58528;SDS011;44322;52.968;5.816;2024-03-29T11:44:14;1.45;;;0.90;;
58528;SDS011;44322;52.968;5.816;2024-03-29T11:46:40;1.40;;;0.93;;
58528;SDS011;44322;52.968;5.816;2024-03-29T11:49:06;2.00;;;0.90;;
58528;SDS011;44322;52.968;5.816;2024-03-29T11:51:33;2.53;;;1.15;;
58528;SDS011;44322;52.968;5.816;2024-03-29T11:53:59;1.27;;;0.90;;
58528;SDS011;44322;52.968;5.816;2024-03-29T11:56:25;2.28;;;0.90;;
58528;SDS011;44322;52.968;5.816;2024-03-29T11:58:50;1.88;;;1.25;;
58528;SDS011;44322;52.968;5.816;2024-03-29T12:01:16;1.45;;;0.90;;
58528;SDS011;44322;52.968;5.816;2024-03-29T12:03:42;1.50;;;0.88;;
58528;SDS011;44322;52.968;5.816;2024-03-29T12:06:09;2.13;;;0.90;;
58528;SDS011;44322;52.968;5.816;2024-03-29T12:08:38;0.82;;;0.70;;
58528;SDS011;44322;52.968;5.816;2024-03-29T12:11:05;2.28;;;0.90;;
58528;SDS011;44322;52.968;5.816;2024-03-29T12:13:31;2.53;;;0.88;;
58528;SDS011;44322;52.968;5.816;2024-03-29T12:15:57;2.38;;;0.65;;
58528;SDS011;44322;52.968;5.816;2024-03-29T12:18:23;2.63;;;0.82;;
58528;SDS011;44322;52.968;5.816;2024-03-29T12:20:51;2.42;;;0.90;;
58528;SDS011;44322;52.968;5.816;2024-03-29T12:23:18;2.03;;;0.90;;
58528;SDS011;44322;52.968;5.816;2024-03-29T12:28:11;1.35;;;0.73;;
58528;SDS011;44322;52.968;5.816;2024-03-29T12:30:45;1.90;;;0.88;;
58528;SDS011;44322;52.968;5.816;2024-03-29T12:33:14;1.58;;;0.65;;
58528;SDS011;44322;52.968;5.816;2024-03-29T12:35:42;1.33;;;0.90;;
58528;SDS011;44322;52.968;5.816;2024-03-29T12:38:14;1.55;;;0.60;;
58528;SDS011;44322;52.968;5.816;2024-03-29T12:40:41;1.05;;;0.70;;
58528;SDS011;44322;52.968;5.816;2024-03-29T12:43:13;1.17;;;0.82;;
58528;SDS011;44322;52.968;5.816;2024-03-29T12:45:40;2.47;;;1.00;;
58528;SDS011;44322;52.968;5.816;2024-03-29T12:48:16;3.17;;;1.50;;
58528;SDS011;44322;52.968;5.816;2024-03-29T12:50:44;1.92;;;0.98;;
58528;SDS011;44322;52.968;5.816;2024-03-29T12:53:10;1.58;;;1.08;;
58528;SDS011;44322;52.968;5.816;2024-03-29T12:55:39;0.80;;;0.80;;
58528;SDS011;44322;52.968;5.816;2024-03-29T12:58:07;2.03;;;0.90;;
58528;SDS011;44322;52.968;5.816;2024-03-29T13:00:38;0.90;;;0.80;;
58528;SDS011;44322;52.968;5.816;2024-03-29T13:03:04;1.38;;;0.88;;
58528;SDS011;44322;52.968;5.816;2024-03-29T13:05:30;1.40;;;0.95;;
58528;SDS011;44322;52.968;5.816;2024-03-29T13:08:00;2.13;;;1.15;;
58528;SDS011;44322;52.968;5.816;2024-03-29T13:10:27;1.90;;;1.00;;
58528;SDS011;44322;52.968;5.816;2024-03-29T13:12:52;1.70;;;1.02;;
58528;SDS011;44322;52.968;5.816;2024-03-29T13:15:25;1.83;;;1.00;;
58528;SDS011;44322;52.968;5.816;2024-03-29T13:17:52;1.55;;;0.95;;
58528;SDS011;44322;52.968;5.816;2024-03-29T13:20:19;2.13;;;1.20;;
58528;SDS011;44322;52.968;5.816;2024-03-29T13:22:45;2.28;;;1.15;;
58528;SDS011;44322;52.968;5.816;2024-03-29T13:25:21;2.55;;;1.40;;
58528;SDS011;44322;52.968;5.816;2024-03-29T13:27:48;1.33;;;1.00;;
58528;SDS011;44322;52.968;5.816;2024-03-29T13:30:18;1.40;;;1.30;;
58528;SDS011;44322;52.968;5.816;2024-03-29T13:32:45;1.75;;;1.48;;
58528;SDS011;44322;52.968;5.816;2024-03-29T13:35:11;2.90;;;1.52;;
58528;SDS011;44322;52.968;5.816;2024-03-29T13:37:41;1.90;;;1.58;;
58528;SDS011;44322;52.968;5.816;2024-03-29T13:40:13;2.83;;;2.10;;
58528;SDS011;44322;52.968;5.816;2024-03-29T13:42:44;2.42;;;1.83;;
58528;SDS011;44322;52.968;5.816;2024-03-29T13:45:09;2.58;;;1.80;;
58528;SDS011;44322;52.968;5.816;2024-03-29T13:47:36;2.22;;;1.85;;
58528;SDS011;44322;52.968;5.816;2024-03-29T13:50:02;2.58;;;2.10;;
58528;SDS011;44322;52.968;5.816;2024-03-29T13:52:29;1.67;;;1.58;;
58528;SDS011;44322;52.968;5.816;2024-03-29T13:54:55;2.00;;;1.52;;
58528;SDS011;44322;52.968;5.816;2024-03-29T13:57:21;3.15;;;1.60;;
58528;SDS011;44322;52.968;5.816;2024-03-29T13:59:47;1.75;;;1.60;;
58528;SDS011;44322;52.968;5.816;2024-03-29T14:02:13;4.75;;;1.80;;
58528;SDS011;44322;52.968;5.816;2024-03-29T14:04:41;1.70;;;1.60;;
58528;SDS011;44322;52.968;5.816;2024-03-29T14:07:11;2.85;;;2.17;;
58528;SDS011;44322;52.968;5.816;2024-03-29T14:09:39;2.15;;;1.58;;
58528;SDS011;44322;52.968;5.816;2024-03-29T14:12:05;1.85;;;1.70;;
58528;SDS011;44322;52.968;5.816;2024-03-29T14:14:31;3.05;;;1.88;;
58528;SDS011;44322;52.968;5.816;2024-03-29T14:16:57;3.90;;;2.00;;
58528;SDS011;44322;52.968;5.816;2024-03-29T14:19:23;2.38;;;1.98;;
58528;SDS011;44322;52.968;5.816;2024-03-29T14:21:49;2.15;;;1.77;;
58528;SDS011;44322;52.968;5.816;2024-03-29T14:24:14;2.10;;;1.90;;
58528;SDS011;44322;52.968;5.816;2024-03-29T14:26:42;2.05;;;1.67;;
58528;SDS011;44322;52.968;5.816;2024-03-29T14:29:08;2.42;;;1.83;;
58528;SDS011;44322;52.968;5.816;2024-03-29T14:31:33;2.40;;;1.90;;
58528;SDS011;44322;52.968;5.816;2024-03-29T14:33:59;2.08;;;1.70;;
58528;SDS011;44322;52.968;5.816;2024-03-29T14:36:25;2.88;;;1.52;;
58528;SDS011;44322;52.968;5.816;2024-03-29T14:38:50;1.75;;;1.65;;
58528;SDS011;44322;52.968;5.816;2024-03-29T14:41:18;3.10;;;1.60;;
58528;SDS011;44322;52.968;5.816;2024-03-29T14:43:44;2.22;;;1.77;;
58528;SDS011;44322;52.968;5.816;2024-03-29T14:46:11;3.20;;;1.92;;
58528;SDS011;44322;52.968;5.816;2024-03-29T14:48:37;2.17;;;1.60;;
58528;SDS011;44322;52.968;5.816;2024-03-29T14:51:03;1.90;;;1.55;;
58528;SDS011;44322;52.968;5.816;2024-03-29T14:53:28;2.65;;;1.50;;
58528;SDS011;44322;52.968;5.816;2024-03-29T14:55:54;1.55;;;1.35;;
58528;SDS011;44322;52.968;5.816;2024-03-29T14:58:19;1.98;;;1.48;;